Time;durP1;ratioP1;P1;durP2;ratioP2;P2;SDS_P1;SDS_P2;PMS_P1;PMS_P2;Temp;Humidity;BMP_temperature;BMP_pressure;BME280_temperature;BME280_humidity;BME280_pressure;Samples;Min_cycle;Max_cycle;Signal;HPM_P1;HPM_P2
2023/05/09 00:01:57;;;;;;;0.73;0.73;;;15.30;99.90;;;;;;4970059;28;20038;-72
2023/05/09 00:04:24;;;;;;;0.35;0.35;;;15.20;99.90;;;;;;4966868;28;20042;-72
2023/05/09 00:06:50;;;;;;;0.50;0.50;;;15.20;99.90;;;;;;4987480;28;20049;-72
2023/05/09 00:09:16;;;;;;;0.75;0.75;;;15.20;99.90;;;;;;4988229;28;20133;-72
2023/05/09 00:11:42;;;;;;;0.47;0.47;;;15.10;99.90;;;;;;4987678;28;20607;-72
2023/05/09 00:14:08;;;;;;;0.50;0.50;;;15.10;99.90;;;;;;4971115;28;20043;-72
2023/05/09 00:16:35;;;;;;;0.30;0.30;;;15.20;99.90;;;;;;4971644;28;20046;-72
2023/05/09 00:19:02;;;;;;;0.45;0.45;;;15.20;99.90;;;;;;4967844;28;20055;-72
2023/05/09 00:21:29;;;;;;;0.30;0.30;;;15.10;99.90;;;;;;4976686;28;20504;-72
2023/05/09 00:23:55;;;;;;;0.55;0.55;;;15.20;99.90;;;;;;4996919;28;20059;-72
2023/05/09 00:26:21;;;;;;;0.35;0.35;;;15.20;99.90;;;;;;4988258;28;20088;-72
2023/05/09 00:28:47;;;;;;;1.00;1.00;;;15.10;99.90;;;;;;4970231;28;20441;-72
2023/05/09 00:31:13;;;;;;;0.50;0.50;;;15.10;99.90;;;;;;4967271;28;20046;-72
2023/05/09 00:33:38;;;;;;;0.40;0.40;;;15.10;99.90;;;;;;4965054;28;20471;-72
2023/05/09 00:36:04;;;;;;;0.43;0.43;;;15.10;99.90;;;;;;4967464;28;20167;-72
2023/05/09 00:38:30;;;;;;;0.38;0.38;;;15.10;99.90;;;;;;4965995;28;20452;-72
2023/05/09 00:40:56;;;;;;;0.30;0.30;;;15.20;99.90;;;;;;4979463;28;20049;-72
2023/05/09 00:43:21;;;;;;;0.30;0.30;;;15.20;99.90;;;;;;4971205;28;20057;-72
2023/05/09 00:45:47;;;;;;;0.43;0.43;;;15.20;99.90;;;;;;4969788;28;20070;-72
2023/05/09 00:48:14;;;;;;;0.30;0.30;;;15.20;99.90;;;;;;4970268;28;20054;-72
2023/05/09 00:50:41;;;;;;;0.63;0.63;;;15.20;99.90;;;;;;4970680;28;20058;-72
2023/05/09 00:53:07;;;;;;;0.20;0.20;;;15.20;99.90;;;;;;4987795;28;20046;-72
2023/05/09 00:55:33;;;;;;;0.30;0.30;;;15.20;99.90;;;;;;4966488;28;20085;-72
2023/05/09 00:57:58;;;;;;;0.30;0.30;;;15.20;99.90;;;;;;4967151;28;20082;-72
2023/05/09 01:00:24;;;;;;;0.25;0.25;;;15.20;99.90;;;;;;4966912;28;20097;-72
2023/05/09 01:02:53;;;;;;;0.20;0.20;;;15.20;99.90;;;;;;4970216;28;20077;-72
2023/05/09 01:05:21;;;;;;;0.47;0.47;;;15.20;99.90;;;;;;4987811;28;20043;-72
2023/05/09 01:07:59;;;;;;;0.45;0.45;;;15.20;99.90;;;;;;4987562;28;20046;-72
2023/05/09 01:10:44;;;;;;;0.30;0.30;;;15.10;99.90;;;;;;4987418;28;20035;-72
2023/05/09 01:13:24;;;;;;;0.47;0.40;;;15.20;99.90;;;;;;4976883;28;20076;-72
2023/05/09 01:15:55;;;;;;;0.38;0.38;;;15.20;99.90;;;;;;4988000;28;20530;-72
2023/05/09 01:18:51;;;;;;;0.73;0.73;;;15.10;99.90;;;;;;4970733;28;20096;-72
2023/05/09 01:21:25;;;;;;;0.30;0.30;;;15.10;99.90;;;;;;4956090;28;20062;-71
2023/05/09 01:24:23;;;;;;;0.40;0.40;;;15.00;99.90;;;;;;4969575;28;20042;-71
2023/05/09 01:27:19;;;;;;;0.70;0.45;;;15.10;99.90;;;;;;4970099;28;20104;-72
2023/05/09 01:29:49;;;;;;;0.20;0.20;;;15.00;99.90;;;;;;4976159;28;20117;-71
2023/05/09 01:32:25;;;;;;;0.22;0.22;;;15.00;99.90;;;;;;4969696;28;20051;-72
2023/05/09 01:34:58;;;;;;;0.45;0.45;;;15.00;99.90;;;;;;4986507;28;20092;-72
2023/05/09 01:37:30;;;;;;;0.75;0.75;;;14.90;99.90;;;;;;4987492;28;20508;-72
2023/05/09 01:40:03;;;;;;;0.45;0.45;;;14.90;99.90;;;;;;4992166;28;20045;-72
2023/05/09 01:42:43;;;;;;;0.20;0.20;;;14.90;99.90;;;;;;4974536;28;20050;-72
2023/05/09 01:45:10;;;;;;;0.70;0.70;;;14.90;99.90;;;;;;4988762;28;20554;-72
2023/05/09 01:47:38;;;;;;;0.32;0.30;;;14.90;99.90;;;;;;4993200;28;20077;-72
2023/05/09 01:50:05;;;;;;;0.57;0.57;;;14.80;99.90;;;;;;4969810;28;20059;-72
2023/05/09 01:52:32;;;;;;;0.43;0.43;;;14.80;99.90;;;;;;4965667;28;20046;-72
2023/05/09 01:55:01;;;;;;;0.47;0.47;;;14.70;99.90;;;;;;4969871;28;20051;-72
2023/05/09 01:57:29;;;;;;;0.45;0.45;;;14.70;99.90;;;;;;4988125;28;20042;-72
2023/05/09 01:59:57;;;;;;;1.30;1.20;;;14.60;99.90;;;;;;4968459;28;20294;-72
2023/05/09 02:02:25;;;;;;;0.73;0.73;;;14.60;99.90;;;;;;4981596;28;20097;-72
2023/05/09 02:04:54;;;;;;;0.68;0.68;;;14.50;99.90;;;;;;4971630;28;20046;-72
2023/05/09 02:07:21;;;;;;;0.60;0.60;;;14.50;99.90;;;;;;4965844;28;20053;-72
2023/05/09 02:09:49;;;;;;;0.30;0.30;;;14.50;99.90;;;;;;4987718;28;20062;-72
2023/05/09 02:12:14;;;;;;;0.50;0.50;;;14.40;99.90;;;;;;4976253;28;20085;-72
2023/05/09 02:14:40;;;;;;;0.73;0.73;;;14.50;99.90;;;;;;4972480;28;20500;-72
2023/05/09 02:17:08;;;;;;;0.63;0.60;;;14.40;99.90;;;;;;4990681;28;20050;-72
2023/05/09 02:19:34;;;;;;;0.20;0.20;;;14.40;99.90;;;;;;4966927;28;20527;-72
2023/05/09 02:22:03;;;;;;;1.05;0.93;;;14.40;99.90;;;;;;4972425;28;20062;-72
2023/05/09 02:24:31;;;;;;;0.60;0.60;;;14.40;99.90;;;;;;4970787;28;20101;-72
2023/05/09 02:26:56;;;;;;;0.57;0.57;;;14.40;99.90;;;;;;4988722;28;20133;-71
2023/05/09 02:29:29;;;;;;;1.30;1.25;;;14.40;99.90;;;;;;4974191;28;20149;-72
2023/05/09 02:31:58;;;;;;;1.50;1.05;;;14.40;99.90;;;;;;4971246;28;20069;-71
2023/05/09 02:34:24;;;;;;;0.82;0.82;;;14.40;99.90;;;;;;4984893;28;20129;-71
2023/05/09 02:36:50;;;;;;;0.50;0.50;;;14.40;99.90;;;;;;4971979;28;20042;-72
2023/05/09 02:39:16;;;;;;;0.35;0.35;;;14.40;99.90;;;;;;4969308;28;20073;-72
2023/05/09 02:41:48;;;;;;;0.30;0.30;;;14.40;99.90;;;;;;4972478;28;20043;-72
2023/05/09 02:44:13;;;;;;;0.32;0.32;;;14.40;99.90;;;;;;4971468;28;20059;-72
2023/05/09 02:46:39;;;;;;;0.30;0.30;;;14.40;99.90;;;;;;4986224;28;20385;-72
2023/05/09 02:49:04;;;;;;;0.43;0.35;;;14.40;99.90;;;;;;4986325;28;20050;-72
2023/05/09 02:51:30;;;;;;;0.57;0.57;;;14.40;99.90;;;;;;4986527;28;20046;-72
2023/05/09 02:53:56;;;;;;;0.75;0.75;;;14.40;99.90;;;;;;4989185;28;20550;-72
2023/05/09 02:56:22;;;;;;;0.47;0.47;;;14.40;99.90;;;;;;4985894;28;20042;-71
2023/05/09 02:58:50;;;;;;;0.65;0.63;;;14.40;99.90;;;;;;4971598;28;20165;-72
2023/05/09 03:01:17;;;;;;;0.20;0.20;;;14.40;99.90;;;;;;4971570;28;20050;-72
2023/05/09 03:03:42;;;;;;;1.38;0.98;;;14.40;99.90;;;;;;4972161;28;20451;-72
2023/05/09 03:06:08;;;;;;;0.45;0.45;;;14.30;99.90;;;;;;4986357;28;20049;-72
2023/05/09 03:08:34;;;;;;;0.50;0.50;;;14.30;99.90;;;;;;4984244;28;20034;-72
2023/05/09 03:10:59;;;;;;;0.82;0.82;;;14.30;99.90;;;;;;4982466;28;20042;-72
2023/05/09 03:13:25;;;;;;;1.40;1.30;;;14.30;99.90;;;;;;4988897;28;20053;-72
2023/05/09 03:15:51;;;;;;;0.80;0.80;;;14.30;99.90;;;;;;4963676;28;20448;-72
2023/05/09 03:18:17;;;;;;;2.83;0.73;;;14.30;99.90;;;;;;4981960;28;20153;-72
2023/05/09 03:20:43;;;;;;;0.65;0.45;;;14.30;99.90;;;;;;4989101;28;20061;-72
2023/05/09 03:23:09;;;;;;;0.38;0.38;;;14.30;99.90;;;;;;4978128;28;20046;-72
2023/05/09 03:25:34;;;;;;;0.45;0.45;;;14.30;99.90;;;;;;4987521;28;20041;-72
2023/05/09 03:28:00;;;;;;;0.47;0.47;;;14.20;99.90;;;;;;4982559;28;20050;-71
2023/05/09 03:30:26;;;;;;;0.93;0.47;;;14.20;99.90;;;;;;4987220;28;20081;-71
2023/05/09 03:32:51;;;;;;;0.50;0.50;;;14.20;99.90;;;;;;4986749;28;20049;-72
2023/05/09 03:35:17;;;;;;;0.80;0.80;;;14.20;99.90;;;;;;4988735;28;20050;-72
2023/05/09 03:37:43;;;;;;;0.25;0.25;;;14.20;99.90;;;;;;4975839;28;20459;-71
2023/05/09 03:40:11;;;;;;;0.50;0.50;;;14.20;99.90;;;;;;4965736;28;20803;-72
2023/05/09 03:42:36;;;;;;;0.30;0.30;;;14.20;99.90;;;;;;4984880;28;20121;-72
2023/05/09 03:45:02;;;;;;;0.93;0.77;;;14.10;99.90;;;;;;4988151;28;20153;-72
2023/05/09 03:47:28;;;;;;;0.40;0.40;;;14.10;99.90;;;;;;4987217;28;20066;-72
2023/05/09 03:49:54;;;;;;;0.63;0.63;;;14.10;99.90;;;;;;4988148;28;20042;-72
2023/05/09 03:52:19;;;;;;;0.35;0.35;;;14.00;99.90;;;;;;4988151;28;20542;-72
2023/05/09 03:54:45;;;;;;;0.38;0.38;;;14.00;99.90;;;;;;4988729;28;20868;-72
2023/05/09 03:57:11;;;;;;;0.35;0.35;;;14.00;99.90;;;;;;4983440;28;20077;-72
2023/05/09 03:59:36;;;;;;;1.55;0.65;;;14.00;99.90;;;;;;4987677;28;20049;-71
2023/05/09 04:02:02;;;;;;;0.43;0.43;;;14.00;99.90;;;;;;4985025;28;20058;-72
2023/05/09 04:04:28;;;;;;;0.50;0.50;;;14.00;99.90;;;;;;4988800;28;20049;-71
2023/05/09 04:06:53;;;;;;;0.70;0.60;;;14.00;99.90;;;;;;4987836;28;20474;-72
2023/05/09 04:09:19;;;;;;;0.52;0.52;;;14.00;99.90;;;;;;4988053;28;20049;-72
2023/05/09 04:11:45;;;;;;;0.40;0.40;;;14.00;99.90;;;;;;4985897;28;20061;-72
2023/05/09 04:14:11;;;;;;;0.35;0.35;;;14.00;99.90;;;;;;4988037;28;20039;-72
2023/05/09 04:16:36;;;;;;;0.65;0.65;;;14.00;99.90;;;;;;4970324;28;20086;-71
2023/05/09 04:19:02;;;;;;;1.65;0.68;;;14.00;99.90;;;;;;4963186;28;20142;-72
2023/05/09 04:21:27;;;;;;;0.68;0.68;;;14.00;99.90;;;;;;4991392;28;20046;-72
2023/05/09 04:23:53;;;;;;;0.35;0.30;;;14.00;99.90;;;;;;4962278;28;20053;-72
2023/05/09 04:26:21;;;;;;;0.20;0.20;;;13.90;99.90;;;;;;4970228;28;20050;-72
2023/05/09 04:28:47;;;;;;;0.20;0.20;;;13.90;99.90;;;;;;4967228;28;20504;-72
2023/05/09 04:31:13;;;;;;;0.20;0.20;;;13.90;99.90;;;;;;4946924;28;20066;-72
2023/05/09 04:33:40;;;;;;;0.82;0.52;;;13.90;99.90;;;;;;4985062;28;20125;-71
2023/05/09 04:36:06;;;;;;;0.30;0.30;;;13.80;99.90;;;;;;4970546;28;20065;-72
2023/05/09 04:38:32;;;;;;;0.28;0.28;;;13.80;99.90;;;;;;4978436;28;20656;-71
2023/05/09 04:40:58;;;;;;;0.40;0.40;;;13.80;99.90;;;;;;4968558;28;20039;-72
2023/05/09 04:43:26;;;;;;;0.55;0.55;;;13.80;99.90;;;;;;4986034;28;20082;-72
2023/05/09 04:45:52;;;;;;;0.32;0.30;;;13.80;99.90;;;;;;4969001;28;20042;-72
2023/05/09 04:48:18;;;;;;;0.90;0.50;;;13.70;99.90;;;;;;4969920;28;20063;-72
2023/05/09 04:50:47;;;;;;;4.57;0.43;;;13.80;99.90;;;;;;4954071;28;20051;-72
2023/05/09 04:53:13;;;;;;;1.88;1.25;;;13.80;99.90;;;;;;4986506;28;20121;-71
2023/05/09 04:55:38;;;;;;;1.58;1.48;;;13.80;99.90;;;;;;4970460;28;20216;-72
2023/05/09 04:58:04;;;;;;;0.73;0.60;;;13.90;99.90;;;;;;4970331;28;20050;-72
2023/05/09 05:00:30;;;;;;;1.17;1.17;;;13.90;99.90;;;;;;4961814;28;20125;-72
2023/05/09 05:02:56;;;;;;;0.55;0.55;;;13.90;99.90;;;;;;4969147;28;20058;-72
2023/05/09 05:05:22;;;;;;;1.05;1.05;;;14.00;99.90;;;;;;4970343;28;20050;-71
2023/05/09 05:07:49;;;;;;;2.58;2.22;;;14.00;99.90;;;;;;4977962;28;20760;-72
2023/05/09 05:10:15;;;;;;;1.13;1.10;;;14.00;99.90;;;;;;4973799;28;20061;-72
2023/05/09 05:12:41;;;;;;;3.20;1.40;;;14.00;99.90;;;;;;4981111;28;20039;-72
2023/05/09 05:15:08;;;;;;;0.60;0.60;;;14.10;99.90;;;;;;4989032;28;20070;-72
2023/05/09 05:17:34;;;;;;;1.23;1.17;;;14.10;99.90;;;;;;4973949;28;20122;-72
2023/05/09 05:20:00;;;;;;;0.88;0.88;;;14.10;99.90;;;;;;4982811;28;20049;-72
2023/05/09 05:22:25;;;;;;;1.50;1.40;;;14.10;99.90;;;;;;4991226;28;20058;-72
2023/05/09 05:24:51;;;;;;;0.52;0.52;;;14.20;99.90;;;;;;4987393;28;20042;-72
2023/05/09 05:27:16;;;;;;;1.30;0.82;;;14.10;99.90;;;;;;4991448;28;20050;-72
2023/05/09 05:29:43;;;;;;;0.50;0.50;;;14.20;99.90;;;;;;4989851;28;20419;-72
2023/05/09 05:32:09;;;;;;;0.70;0.70;;;14.20;99.90;;;;;;4970073;28;20051;-72
2023/05/09 05:34:38;;;;;;;0.63;0.63;;;14.20;99.90;;;;;;4983067;28;20198;-72
2023/05/09 05:37:04;;;;;;;0.90;0.40;;;14.20;99.90;;;;;;4985628;28;20062;-72
2023/05/09 05:39:30;;;;;;;0.70;0.70;;;14.30;99.90;;;;;;4966121;28;20834;-71
2023/05/09 05:41:55;;;;;;;1.20;1.10;;;14.30;99.90;;;;;;4972028;28;20054;-71
2023/05/09 05:44:22;;;;;;;0.60;0.60;;;14.30;99.90;;;;;;4969426;28;20500;-71
2023/05/09 05:46:47;;;;;;;0.90;0.90;;;14.30;99.90;;;;;;4969630;28;20155;-70
2023/05/09 05:49:13;;;;;;;3.50;1.23;;;14.30;99.90;;;;;;4964288;28;20891;-71
2023/05/09 05:51:39;;;;;;;1.30;1.20;;;14.40;99.90;;;;;;4983133;28;20065;-71
2023/05/09 05:54:05;;;;;;;0.90;0.90;;;14.40;99.90;;;;;;4970559;28;20101;-71
2023/05/09 05:56:31;;;;;;;1.17;1.17;;;14.40;99.90;;;;;;4967440;28;20104;-71
2023/05/09 05:58:57;;;;;;;0.52;0.52;;;14.40;99.90;;;;;;4984273;28;20038;-71
2023/05/09 06:01:23;;;;;;;1.42;1.05;;;14.40;99.90;;;;;;4991637;28;20046;-71
2023/05/09 06:03:53;;;;;;;0.43;0.43;;;14.50;99.90;;;;;;4991133;28;20042;-71
2023/05/09 06:06:23;;;;;;;0.82;0.82;;;14.50;99.90;;;;;;4965394;28;20109;-71
2023/05/09 06:08:48;;;;;;;1.80;1.70;;;14.60;99.90;;;;;;4986867;28;20038;-71
2023/05/09 06:11:15;;;;;;;0.47;0.47;;;14.60;99.90;;;;;;4985899;28;20505;-71
2023/05/09 06:13:41;;;;;;;0.70;0.70;;;14.60;99.90;;;;;;4966311;28;20664;-71
2023/05/09 06:16:07;;;;;;;1.23;0.98;;;14.60;99.90;;;;;;4984091;28;20085;-71
2023/05/09 06:18:38;;;;;;;1.67;1.58;;;14.60;99.90;;;;;;4967001;28;20094;-71
2023/05/09 06:21:05;;;;;;;5.82;1.65;;;14.70;99.90;;;;;;4973681;28;20077;-71
2023/05/09 06:23:31;;;;;;;2.03;1.92;;;14.70;99.90;;;;;;4975119;28;20053;-71
2023/05/09 06:26:00;;;;;;;0.80;0.80;;;14.70;99.90;;;;;;4975070;28;20042;-71
2023/05/09 06:28:25;;;;;;;1.35;1.35;;;14.80;99.90;;;;;;4990599;28;20042;-71
2023/05/09 06:30:51;;;;;;;1.10;1.10;;;14.80;99.90;;;;;;4962061;28;20055;-71
2023/05/09 06:33:17;;;;;;;1.25;1.15;;;14.90;99.90;;;;;;4984992;28;20141;-71
2023/05/09 06:35:43;;;;;;;1.30;1.20;;;14.90;99.90;;;;;;4970661;28;20039;-71
2023/05/09 06:38:09;;;;;;;1.05;1.02;;;15.00;99.90;;;;;;4971990;28;20082;-71
2023/05/09 06:40:35;;;;;;;1.40;1.35;;;15.00;99.90;;;;;;4968337;28;20917;-71
2023/05/09 06:43:01;;;;;;;0.50;0.50;;;15.00;99.90;;;;;;4963799;28;20088;-71
2023/05/09 06:45:26;;;;;;;1.67;1.58;;;15.10;99.90;;;;;;4965050;28;20054;-71
2023/05/09 06:47:52;;;;;;;1.27;0.70;;;15.10;99.90;;;;;;4966136;28;20389;-71
2023/05/09 06:50:17;;;;;;;5.95;0.98;;;15.20;99.90;;;;;;4985199;28;20042;-71
2023/05/09 06:52:43;;;;;;;0.82;0.82;;;15.20;99.90;;;;;;4963309;28;20236;-71
2023/05/09 06:55:09;;;;;;;1.40;1.30;;;15.20;99.90;;;;;;4973830;28;20049;-71
2023/05/09 06:57:35;;;;;;;0.82;0.82;;;15.30;99.90;;;;;;4958930;28;20720;-71
2023/05/09 07:00:01;;;;;;;3.03;2.75;;;15.30;99.90;;;;;;4966067;28;20093;-71
2023/05/09 07:02:27;;;;;;;3.20;2.45;;;15.30;99.90;;;;;;4973140;28;20122;-71
2023/05/09 07:04:52;;;;;;;1.90;1.80;;;15.30;99.90;;;;;;4955495;28;20124;-71
2023/05/09 07:07:18;;;;;;;1.95;1.85;;;15.30;99.90;;;;;;4958914;28;20043;-71
2023/05/09 07:09:43;;;;;;;1.30;1.30;;;15.30;99.90;;;;;;4963226;28;20492;-71
2023/05/09 07:12:10;;;;;;;2.03;1.92;;;15.30;99.90;;;;;;4970938;28;20469;-71
2023/05/09 07:14:36;;;;;;;2.63;2.40;;;15.30;99.90;;;;;;4966176;28;20512;-71
2023/05/09 07:17:01;;;;;;;1.60;1.40;;;15.40;99.90;;;;;;4965630;28;20054;-71
2023/05/09 07:19:27;;;;;;;1.98;1.70;;;15.40;99.90;;;;;;4971473;28;20042;-71
2023/05/09 07:21:52;;;;;;;3.08;2.72;;;15.40;99.90;;;;;;4965441;28;20045;-71
2023/05/09 07:24:18;;;;;;;1.75;1.65;;;15.40;99.90;;;;;;4985215;28;20047;-71
2023/05/09 07:26:44;;;;;;;2.17;2.00;;;15.40;99.90;;;;;;4975124;28;20050;-70
2023/05/09 07:29:09;;;;;;;4.35;3.97;;;15.40;99.90;;;;;;4960381;28;20588;-70
2023/05/09 07:31:35;;;;;;;2.42;2.22;;;15.40;99.90;;;;;;4949772;28;20121;-71
2023/05/09 07:34:01;;;;;;;1.50;1.40;;;15.40;99.90;;;;;;4956726;28;20062;-71
2023/05/09 07:36:26;;;;;;;1.70;1.60;;;15.30;99.90;;;;;;4982265;28;20113;-71
2023/05/09 07:38:53;;;;;;;2.35;2.15;;;15.40;99.90;;;;;;4967498;28;20100;-71
2023/05/09 07:41:18;;;;;;;2.47;2.28;;;15.30;99.90;;;;;;4967338;28;20500;-71
2023/05/09 07:43:44;;;;;;;7.30;3.33;;;15.30;99.90;;;;;;4982283;28;20058;-70
2023/05/09 07:46:10;;;;;;;2.30;2.10;;;15.40;99.90;;;;;;4971548;28;20051;-71
2023/05/09 07:48:36;;;;;;;1.83;1.73;;;15.40;99.90;;;;;;4985914;28;20100;-71
2023/05/09 07:51:01;;;;;;;1.80;1.70;;;15.40;99.90;;;;;;4979075;28;20125;-71
2023/05/09 07:53:27;;;;;;;2.05;1.85;;;15.40;99.90;;;;;;4971883;28;20096;-71
2023/05/09 07:55:53;;;;;;;2.70;2.50;;;15.40;99.90;;;;;;4987751;28;20045;-71
2023/05/09 07:58:19;;;;;;;4.65;2.95;;;15.40;99.90;;;;;;4986648;28;20514;-71
2023/05/09 08:00:45;;;;;;;4.53;3.95;;;15.50;99.90;;;;;;4986807;28;20050;-71
2023/05/09 08:03:10;;;;;;;4.25;2.40;;;15.50;99.90;;;;;;4984412;28;20161;-71
2023/05/09 08:05:36;;;;;;;1.60;1.60;;;15.50;99.90;;;;;;4971092;28;20125;-71
2023/05/09 08:08:01;;;;;;;3.17;2.97;;;15.50;99.90;;;;;;4988106;28;20140;-71
2023/05/09 08:10:29;;;;;;;2.13;1.63;;;15.60;99.90;;;;;;4984785;28;20498;-71
2023/05/09 08:12:56;;;;;;;3.17;3.00;;;15.60;99.90;;;;;;4980852;28;20057;-71
2023/05/09 08:15:22;;;;;;;2.15;1.98;;;15.60;99.90;;;;;;4971297;28;20412;-71
2023/05/09 08:17:47;;;;;;;3.85;3.55;;;15.60;99.90;;;;;;4986896;28;20046;-71
2023/05/09 08:20:13;;;;;;;4.15;2.92;;;15.70;99.90;;;;;;4971074;28;20057;-71
2023/05/09 08:22:39;;;;;;;3.25;2.38;;;15.80;99.90;;;;;;4985237;28;20039;-71
2023/05/09 08:25:07;;;;;;;5.20;4.80;;;15.80;99.90;;;;;;4970102;28;20524;-71
2023/05/09 08:27:32;;;;;;;4.30;3.95;;;15.90;99.90;;;;;;4983551;28;20103;-71
2023/05/09 08:29:58;;;;;;;1.27;1.27;;;15.90;99.90;;;;;;4962787;28;20047;-71
2023/05/09 08:32:23;;;;;;;3.92;2.45;;;16.00;99.90;;;;;;4969162;28;20463;-71
2023/05/09 08:34:49;;;;;;;3.95;3.08;;;16.00;99.90;;;;;;4987865;28;20031;-71
2023/05/09 08:37:15;;;;;;;4.10;3.05;;;16.00;99.90;;;;;;4972496;28;20558;-71
2023/05/09 08:39:41;;;;;;;2.45;2.30;;;16.10;99.90;;;;;;4969956;28;20176;-71
2023/05/09 08:42:08;;;;;;;2.33;2.20;;;16.20;99.90;;;;;;4985720;28;20054;-71
2023/05/09 08:44:33;;;;;;;2.40;2.30;;;16.20;99.90;;;;;;4953045;28;20069;-71
2023/05/09 08:47:02;;;;;;;2.38;2.28;;;16.30;99.90;;;;;;4991605;28;20085;-71
2023/05/09 08:49:28;;;;;;;2.10;1.52;;;16.30;99.90;;;;;;4991508;28;20050;-71
2023/05/09 08:51:56;;;;;;;2.55;2.35;;;16.40;99.90;;;;;;4991945;28;20093;-71
2023/05/09 08:54:22;;;;;;;3.13;2.10;;;16.50;99.90;;;;;;4985612;28;20042;-71
2023/05/09 08:56:49;;;;;;;2.38;1.88;;;16.50;99.90;;;;;;4979441;28;20039;-71
2023/05/09 08:59:17;;;;;;;2.97;2.67;;;16.50;99.90;;;;;;4982965;28;20111;-71
2023/05/09 09:01:43;;;;;;;5.03;3.47;;;16.50;99.90;;;;;;4950736;28;20425;-71
2023/05/09 09:04:10;;;;;;;2.92;2.72;;;16.50;99.90;;;;;;4974129;28;20047;-71
2023/05/09 09:06:37;;;;;;;3.35;3.15;;;16.60;99.90;;;;;;4960565;28;20133;-71
2023/05/09 09:09:05;;;;;;;4.18;3.08;;;16.60;99.90;;;;;;4981157;28;20238;-71
2023/05/09 09:11:32;;;;;;;2.70;2.25;;;16.70;99.90;;;;;;4978912;28;20057;-71
2023/05/09 09:14:05;;;;;;;1.88;1.77;;;16.80;99.90;;;;;;4977891;28;20054;-71
2023/05/09 09:16:32;;;;;;;3.10;1.92;;;16.80;99.90;;;;;;4976618;28;20046;-71
2023/05/09 09:18:59;;;;;;;2.35;2.08;;;16.90;99.90;;;;;;4981383;28;20049;-71
2023/05/09 09:21:25;;;;;;;1.90;1.80;;;16.90;99.90;;;;;;4974394;28;20492;-71
2023/05/09 09:23:53;;;;;;;3.42;3.17;;;17.00;99.90;;;;;;4979559;28;20074;-71
2023/05/09 09:26:20;;;;;;;1.77;1.67;;;17.00;99.90;;;;;;4986321;28;20042;-71
2023/05/09 09:28:46;;;;;;;4.35;3.08;;;17.10;99.90;;;;;;4975815;28;20073;-71
2023/05/09 09:31:26;;;;;;;3.55;2.40;;;17.10;99.90;;;;;;4981151;28;20494;-71
2023/05/09 09:33:58;;;;;;;3.45;3.05;;;17.20;99.90;;;;;;4957984;28;20066;-71
2023/05/09 09:36:31;;;;;;;3.45;3.15;;;17.20;99.90;;;;;;4977649;28;20100;-71
2023/05/09 09:39:03;;;;;;;3.42;3.13;;;17.30;99.90;;;;;;4965241;28;20089;-71
2023/05/09 09:41:37;;;;;;;5.78;5.30;;;17.40;99.90;;;;;;4963699;28;20062;-71
2023/05/09 09:44:11;;;;;;;2.78;2.30;;;17.40;99.90;;;;;;4957207;28;20112;-71
2023/05/09 09:46:47;;;;;;;1.33;1.23;;;17.50;99.90;;;;;;4967028;28;20047;-72
2023/05/09 09:49:15;;;;;;;1.20;1.10;;;17.70;99.90;;;;;;4964127;28;20079;-71
2023/05/09 09:51:41;;;;;;;;;;;17.70;99.90;;;;;;4970049;28;20042;-71
2023/05/09 09:54:08;;;;;;;5.32;2.03;;;17.80;99.90;;;;;;4962714;28;20391;-72
2023/05/09 09:56:45;;;;;;;2.22;2.10;;;17.80;99.90;;;;;;4970348;28;20065;-71
2023/05/09 09:59:16;;;;;;;3.50;3.20;;;17.80;99.90;;;;;;4971841;28;20050;-71
2023/05/09 10:02:02;;;;;;;3.45;3.25;;;17.70;99.90;;;;;;4964299;28;20093;-71
2023/05/09 10:04:33;;;;;;;2.72;2.45;;;17.70;99.90;;;;;;4978792;28;20042;-72
2023/05/09 10:07:04;;;;;;;3.00;2.80;;;17.60;99.90;;;;;;4963284;28;20053;-71
2023/05/09 10:09:31;;;;;;;12.07;3.40;;;17.60;99.90;;;;;;4966345;28;20058;-72
2023/05/09 10:12:02;;;;;;;4.63;2.33;;;17.60;99.90;;;;;;4974169;28;20484;-72
2023/05/09 10:14:30;;;;;;;3.60;3.28;;;17.60;99.90;;;;;;4978246;28;20059;-72
2023/05/09 10:16:57;;;;;;;3.78;1.10;;;17.60;99.90;;;;;;4977175;28;20488;-72
2023/05/09 10:19:25;;;;;;;1.60;1.55;;;17.60;99.90;;;;;;4972793;28;20126;-71
2023/05/09 10:21:52;;;;;;;;;;;17.60;99.90;;;;;;4971783;28;20051;-71
2023/05/09 10:24:41;;;;;;;2.50;2.17;;;17.70;99.90;;;;;;4952033;28;19980;-72
2023/05/09 10:27:11;;;;;;;2.03;1.90;;;17.90;99.90;;;;;;4956453;28;20058;-71
2023/05/09 10:29:48;;;;;;;6.65;5.80;;;18.00;99.90;;;;;;4983505;28;20038;-71
2023/05/09 10:32:30;;;;;;;5.72;5.22;;;18.20;99.90;;;;;;4973037;28;20385;-71
2023/05/09 10:35:04;;;;;;;4.00;3.63;;;18.30;99.90;;;;;;4976229;28;20054;-71
2023/05/09 10:37:30;;;;;;;7.03;4.55;;;18.30;99.90;;;;;;4961595;28;20722;-71
2023/05/09 10:39:56;;;;;;;5.53;2.97;;;18.20;99.90;;;;;;4981273;28;20046;-71
2023/05/09 10:42:24;;;;;;;5.65;4.43;;;18.20;99.90;;;;;;4976327;28;20084;-74
2023/05/09 10:44:52;;;;;;;5.32;4.63;;;18.00;99.90;;;;;;4962236;28;20097;-74
2023/05/09 10:47:19;;;;;;;5.03;3.78;;;17.90;99.90;;;;;;4960548;28;20548;-74
2023/05/09 10:49:45;;;;;;;3.75;3.10;;;17.80;99.90;;;;;;4956985;28;20675;-74
2023/05/09 10:52:11;;;;;;;3.10;2.90;;;17.80;99.90;;;;;;4955079;28;20385;-73
2023/05/09 10:54:37;;;;;;;3.25;2.83;;;17.70;99.90;;;;;;4979266;28;20057;-74
2023/05/09 10:57:05;;;;;;;4.63;3.47;;;17.70;99.90;;;;;;4963611;28;20045;-73
2023/05/09 10:59:31;;;;;;;;;;;17.70;99.90;;;;;;4976909;28;20125;-73
2023/05/09 11:02:01;;;;;;;3.90;3.58;;;17.70;99.90;;;;;;4978087;28;20201;-73
2023/05/09 11:04:27;;;;;;;3.13;2.53;;;17.80;99.90;;;;;;4976973;28;20057;-74
2023/05/09 11:06:54;;;;;;;3.05;2.33;;;17.80;99.90;;;;;;4978583;28;20416;-74
2023/05/09 11:09:27;;;;;;;4.15;3.83;;;17.90;99.90;;;;;;4972053;28;20046;-74
2023/05/09 11:12:04;;;;;;;3.35;2.80;;;17.90;99.90;;;;;;4976554;28;20050;-74
2023/05/09 11:14:45;;;;;;;3.53;1.80;;;17.90;99.90;;;;;;4980057;28;20125;-74
2023/05/09 11:17:23;;;;;;;3.15;2.85;;;17.90;99.90;;;;;;4966290;28;20065;-74
2023/05/09 11:19:49;;;;;;;1.38;1.27;;;17.90;99.90;;;;;;4978404;28;20057;-74
2023/05/09 11:22:28;;;;;;;1.13;1.13;;;17.90;99.90;;;;;;4960943;28;20416;-74
2023/05/09 11:25:03;;;;;;;2.55;2.38;;;17.90;99.90;;;;;;4966777;28;20104;-74
2023/05/09 11:27:42;;;;;;;4.43;2.95;;;17.90;99.90;;;;;;4966704;28;20135;-73
2023/05/09 11:30:09;;;;;;;6.18;4.15;;;17.90;99.90;;;;;;4975331;28;20047;-74
2023/05/09 11:32:52;;;;;;;3.17;2.87;;;17.90;99.90;;;;;;4976196;28;20905;-74
2023/05/09 11:35:19;;;;;;;6.88;3.08;;;18.00;99.90;;;;;;4975089;28;20055;-74
2023/05/09 11:38:05;;;;;;;3.33;2.50;;;18.20;99.90;;;;;;4973074;28;20038;-74
2023/05/09 11:40:32;;;;;;;2.30;2.15;;;18.40;99.90;;;;;;4960084;28;20417;-75
2023/05/09 11:42:59;;;;;;;3.67;3.40;;;18.60;99.90;;;;;;4981315;28;20058;-74
2023/05/09 11:45:30;;;;;;;3.13;2.85;;;18.80;99.90;;;;;;4979582;28;20319;-74
2023/05/09 11:47:57;;;;;;;4.30;4.00;;;18.80;99.90;;;;;;4960073;28;20062;-74
2023/05/09 11:50:22;;;;;;;5.43;4.93;;;18.90;99.90;;;;;;4957558;28;20053;-74
2023/05/09 11:52:49;;;;;;;4.90;3.15;;;18.90;99.90;;;;;;4981807;28;20054;-74
2023/05/09 11:55:17;;;;;;;2.65;2.17;;;18.80;99.90;;;;;;4973578;28;20365;-74
2023/05/09 11:57:46;;;;;;;2.42;1.95;;;18.80;99.90;;;;;;4960773;28;20118;-74
2023/05/09 12:00:18;;;;;;;3.20;1.85;;;18.70;99.90;;;;;;4957311;28;20154;-75
2023/05/09 12:02:44;;;;;;;1.02;0.98;;;18.60;99.90;;;;;;4979150;28;20074;-75
2023/05/09 12:05:13;;;;;;;2.10;1.70;;;18.50;99.90;;;;;;4978931;28;20055;-75
2023/05/09 12:07:39;;;;;;;;;;;18.40;99.90;;;;;;4982574;28;20148;-75
2023/05/09 12:10:10;;;;;;;3.05;2.03;;;18.40;99.90;;;;;;4971687;28;20034;-75
2023/05/09 12:12:40;;;;;;;1.55;1.42;;;18.30;99.90;;;;;;4974925;28;20482;-75
2023/05/09 12:15:07;;;;;;;2.08;1.85;;;18.20;99.90;;;;;;4976818;28;20054;-75
2023/05/09 12:17:36;;;;;;;1.42;1.17;;;18.20;99.90;;;;;;4957363;28;20561;-75
2023/05/09 12:20:04;;;;;;;1.15;1.10;;;18.00;99.90;;;;;;4973059;28;20452;-75
2023/05/09 12:22:30;;;;;;;3.08;1.55;;;17.90;99.90;;;;;;4965448;28;20384;-75
2023/05/09 12:25:00;;;;;;;3.15;1.80;;;17.80;99.90;;;;;;4969988;28;20555;-75
2023/05/09 12:27:27;;;;;;;1.33;1.23;;;17.80;99.90;;;;;;4964721;28;20542;-75
2023/05/09 12:29:53;;;;;;;1.27;1.23;;;17.80;99.90;;;;;;4978296;28;20050;-75
2023/05/09 12:32:19;;;;;;;2.50;1.90;;;17.80;99.90;;;;;;4978492;28;20089;-75
2023/05/09 12:34:47;;;;;;;1.02;1.02;;;17.80;99.90;;;;;;4983207;28;20046;-75
2023/05/09 12:37:17;;;;;;;1.40;1.35;;;17.90;99.90;;;;;;4977397;28;20058;-75
2023/05/09 12:40:03;;;;;;;5.22;1.45;;;17.90;99.90;;;;;;4973995;28;20054;-75
2023/05/09 12:42:32;;;;;;;4.93;2.58;;;18.00;99.90;;;;;;4965567;28;20054;-75
2023/05/09 12:45:00;;;;;;;4.68;4.28;;;18.00;99.90;;;;;;4960037;28;20690;-75
2023/05/09 12:47:27;;;;;;;4.50;4.10;;;18.10;99.90;;;;;;4965740;28;20501;-72
2023/05/09 12:50:05;;;;;;;4.88;3.35;;;18.10;99.90;;;;;;4982947;28;20193;-72
2023/05/09 12:52:40;;;;;;;3.40;2.45;;;18.20;99.90;;;;;;4952731;28;20546;-72